Spring Creek, Pennsylvania
Current Conditions -  °F | °C
As of 9:15 AM on Wednesday 26 Nov 2014 (Local Time) from KJHW Reporting Station
Overcast Overcast  
Wind Chill: 23°   Ceiling: 2100
Heat Index: 30°   Visibility: 10mi
Dew Point: 23°   Wind: 8mph
Humidity: 75%   Direction: 360°N
Pressure: 30.08"   Gusts: NA
Location:  41.88°N, 79.53°W
Report Text: KJHW 261415Z 36007KT 10SM FEW015 OVC021 M01/M05 A3008 RMK AO1
Loading
Personal Weather Stations






























Interactive Weather Map New forecast layout! Learn more

10-Day Weather Forecast

Advertisements
Track Severe Weather on mobile